Time;durP1;ratioP1;P1;durP2;ratioP2;P2;SDS_P1;SDS_P2;PMS_P1;PMS_P2;Temp;Humidity;BMP_temperature;BMP_pressure;BME280_temperature;BME280_humidity;BME280_pressure;Samples;Min_cycle;Max_cycle;Signal;HPM_P1;HPM_P2
2022/02/12 00:00:48;;;;;;;4.57;3.17;;;1.70;1.00;;;;;;5062950;28;20272;-83
2022/02/12 00:03:15;;;;;;;8.27;2.80;;;1.60;1.00;;;;;;5063634;28;20207;-83
2022/02/12 00:05:42;;;;;;;3.97;3.05;;;1.50;1.00;;;;;;5064084;28;20230;-83
2022/02/12 00:08:08;;;;;;;8.32;2.90;;;1.50;1.00;;;;;;5064354;28;20215;-84
2022/02/12 00:10:37;;;;;;;8.43;2.97;;;1.50;1.00;;;;;;5061355;28;20198;-83
2022/02/12 00:13:10;;;;;;;8.25;2.95;;;1.50;13.60;;;;;;5064152;28;20203;-83
2022/02/12 00:15:37;;;;;;;6.82;2.40;;;1.50;99.90;;;;;;5062412;28;20227;-83
2022/02/12 00:18:04;;;;;;;4.60;2.85;;;1.50;74.90;;;;;;5061944;28;20669;-83
2022/02/12 00:20:30;;;;;;;7.35;3.65;;;1.40;42.00;;;;;;5061996;28;20199;-83
2022/02/12 00:22:57;;;;;;;7.38;2.78;;;1.30;71.40;;;;;;5062258;28;20576;-83
2022/02/12 00:25:24;;;;;;;5.55;2.83;;;1.30;99.90;;;;;;5062661;28;20281;-83
2022/02/12 00:27:52;;;;;;;8.02;3.03;;;1.30;99.90;;;;;;5062531;28;20625;-83
2022/02/12 00:30:18;;;;;;;6.32;2.78;;;1.30;99.90;;;;;;5062558;28;20203;-83
2022/02/12 00:32:45;;;;;;;5.03;3.03;;;1.50;99.90;;;;;;5065193;28;20552;-84
2022/02/12 00:35:12;;;;;;;5.22;2.90;;;1.30;99.90;;;;;;5061323;28;20228;-83
2022/02/12 00:37:38;;;;;;;11.00;4.20;;;1.30;99.90;;;;;;5062517;28;20265;-83
2022/02/12 00:40:06;;;;;;;5.03;2.65;;;1.20;99.90;;;;;;5062335;28;20214;-83
2022/02/12 00:42:33;;;;;;;4.60;2.17;;;1.20;99.90;;;;;;5063727;28;20249;-83
2022/02/12 00:45:02;;;;;;;4.97;3.13;;;1.20;99.90;;;;;;5065617;28;20280;-84
2022/02/12 00:47:29;;;;;;;5.20;2.70;;;1.20;99.90;;;;;;5065367;28;20203;-83
2022/02/12 00:49:55;;;;;;;4.30;3.30;;;1.20;99.90;;;;;;5065602;28;20234;-82
2022/02/12 00:52:22;;;;;;;3.83;3.42;;;1.20;99.90;;;;;;5066434;28;20222;-83
2022/02/12 00:54:48;;;;;;;5.05;3.20;;;1.10;99.90;;;;;;5065965;28;20223;-83
2022/02/12 00:57:15;;;;;;;7.50;3.20;;;1.20;99.90;;;;;;5065368;28;20211;-83
2022/02/12 00:59:42;;;;;;;5.45;3.22;;;1.20;99.90;;;;;;5066840;28;20199;-82
2022/02/12 01:02:10;;;;;;;10.48;3.13;;;1.20;99.90;;;;;;5066442;28;20223;-83
2022/02/12 01:04:36;;;;;;;6.00;3.08;;;1.20;99.90;;;;;;5071410;28;20219;-83
2022/02/12 01:07:03;;;;;;;8.23;3.72;;;1.00;99.90;;;;;;5069430;28;20203;-83
2022/02/12 01:09:30;;;;;;;5.95;2.80;;;1.00;99.90;;;;;;5069403;28;20727;-83
2022/02/12 01:11:57;;;;;;;9.57;3.33;;;1.10;99.90;;;;;;5064366;28;20619;-82
2022/02/12 01:14:23;;;;;;;10.70;4.82;;;1.10;99.90;;;;;;5063891;28;20292;-83
2022/02/12 01:16:50;;;;;;;7.45;4.20;;;1.00;99.90;;;;;;5064574;28;20677;-83
2022/02/12 01:19:18;;;;;;;5.00;3.20;;;1.00;99.90;;;;;;5065000;28;20222;-82
2022/02/12 01:21:45;;;;;;;9.40;4.70;;;1.00;99.90;;;;;;5068958;28;20237;-83
2022/02/12 01:24:11;;;;;;;4.18;2.30;;;1.00;99.90;;;;;;5073053;28;20219;-83
2022/02/12 01:26:38;;;;;;;7.78;3.70;;;1.00;99.90;;;;;;5076546;28;20199;-83
2022/02/12 01:29:05;;;;;;;6.15;3.30;;;0.90;99.90;;;;;;5077522;28;20218;-82
2022/02/12 01:31:31;;;;;;;5.25;3.20;;;0.80;99.90;;;;;;5078813;28;20583;-82
2022/02/12 01:33:58;;;;;;;9.32;3.55;;;0.70;99.90;;;;;;5079706;28;20207;-82
2022/02/12 01:36:27;;;;;;;4.78;3.08;;;0.80;99.90;;;;;;5078955;28;20229;-82
2022/02/12 01:38:53;;;;;;;6.68;2.20;;;0.80;99.90;;;;;;5078820;28;20206;-86
2022/02/12 01:41:20;;;;;;;4.18;2.72;;;0.80;99.90;;;;;;5075955;28;20266;-82
2022/02/12 01:43:47;;;;;;;11.38;3.47;;;0.90;99.90;;;;;;5073589;28;20210;-83
2022/02/12 01:46:14;;;;;;;2.55;2.10;;;0.80;99.90;;;;;;5072186;28;20203;-82
2022/02/12 01:48:43;;;;;;;5.78;2.80;;;0.80;99.90;;;;;;5067839;28;20203;-82
2022/02/12 01:51:10;;;;;;;5.88;3.00;;;0.70;99.90;;;;;;5065221;28;20282;-82
2022/02/12 01:53:38;;;;;;;5.88;2.90;;;0.80;99.90;;;;;;5065501;28;20225;-83
2022/02/12 01:56:06;;;;;;;8.30;2.53;;;0.80;99.90;;;;;;5065892;28;20226;-83
2022/02/12 01:58:33;;;;;;;8.73;3.13;;;0.80;99.90;;;;;;5064760;28;20207;-83
2022/02/12 02:00:59;;;;;;;4.57;2.63;;;0.80;99.90;;;;;;5065220;28;20257;-84
2022/02/12 02:03:26;;;;;;;8.70;3.55;;;0.90;99.90;;;;;;5065942;28;20231;-83
2022/02/12 02:05:55;;;;;;;7.22;3.80;;;0.50;99.90;;;;;;5066733;28;20249;-83
2022/02/12 02:08:22;;;;;;;10.00;3.83;;;0.70;99.90;;;;;;5065368;28;20209;-82
2022/02/12 02:10:52;;;;;;;7.50;3.05;;;0.90;99.90;;;;;;5065124;28;20207;-83
2022/02/12 02:13:24;;;;;;;9.65;3.25;;;0.60;99.90;;;;;;5065018;28;20214;-82
2022/02/12 02:15:51;;;;;;;8.18;3.85;;;0.60;99.90;;;;;;5065584;28;20270;-83
2022/02/12 02:18:18;;;;;;;6.70;4.45;;;0.60;99.90;;;;;;5066506;28;20631;-83
2022/02/12 02:20:44;;;;;;;6.57;3.40;;;0.60;99.90;;;;;;5077597;28;20199;-82
2022/02/12 02:23:12;;;;;;;11.82;3.65;;;0.50;99.90;;;;;;5077530;28;20223;-82
2022/02/12 02:25:39;;;;;;;6.28;3.67;;;0.60;99.90;;;;;;5078450;28;20210;-82
2022/02/12 02:28:06;;;;;;;5.32;2.97;;;0.60;99.90;;;;;;5069440;28;20203;-82
2022/02/12 02:30:32;;;;;;;7.03;3.72;;;0.60;99.90;;;;;;5070417;28;20199;-83
2022/02/12 02:32:59;;;;;;;7.03;4.13;;;0.60;99.90;;;;;;5074366;28;20234;-83
2022/02/12 02:35:26;;;;;;;9.35;4.60;;;0.60;99.90;;;;;;5076783;28;20223;-82
2022/02/12 02:37:52;;;;;;;7.63;4.13;;;0.60;99.90;;;;;;5077214;28;20214;-82
2022/02/12 02:40:22;;;;;;;8.15;4.28;;;0.50;99.90;;;;;;5077254;28;20211;-83
2022/02/12 02:42:50;;;;;;;8.98;4.68;;;0.60;99.90;;;;;;5078344;28;20246;-81
2022/02/12 02:45:17;;;;;;;5.55;3.90;;;0.60;99.90;;;;;;5077927;28;20233;-82
2022/02/12 02:47:44;;;;;;;7.43;4.13;;;0.50;99.90;;;;;;5077914;28;20195;-82
2022/02/12 02:56:02;;;;;;;8.45;4.20;;;0.40;99.90;;;;;;5069163;28;20241;-83
2022/02/12 02:58:31;;;;;;;4.88;3.55;;;0.40;99.90;;;;;;5069390;28;20226;-83
2022/02/12 03:00:58;;;;;;;8.10;3.55;;;0.50;99.90;;;;;;5074510;28;20203;-83
2022/02/12 03:03:26;;;;;;;6.55;3.45;;;0.40;99.90;;;;;;5075050;28;20219;-83
2022/02/12 03:05:52;;;;;;;5.57;4.05;;;0.40;99.90;;;;;;5074874;28;20223;-83
2022/02/12 03:08:19;;;;;;;4.65;3.65;;;0.40;99.90;;;;;;5074398;28;20237;-83
2022/02/12 03:10:47;;;;;;;7.88;4.18;;;0.40;99.90;;;;;;5070937;28;20203;-82
2022/02/12 03:13:13;;;;;;;11.50;4.50;;;0.40;99.90;;;;;;5071004;28;20226;-82
2022/02/12 03:15:41;;;;;;;7.40;3.97;;;0.50;99.90;;;;;;5068521;28;20247;-82
2022/02/12 03:18:07;;;;;;;11.35;4.45;;;0.20;99.90;;;;;;5066076;28;20225;-82
2022/02/12 03:20:34;;;;;;;7.93;5.22;;;0.40;99.90;;;;;;5065278;28;20211;-83
2022/02/12 03:23:01;;;;;;;6.20;4.57;;;0.50;99.90;;;;;;5065611;28;20223;-83
2022/02/12 03:25:28;;;;;;;9.98;5.05;;;0.20;99.90;;;;;;5063204;28;20266;-82
2022/02/12 03:27:57;;;;;;;10.68;6.40;;;0.20;99.90;;;;;;5062315;28;20230;-83
2022/02/12 03:30:24;;;;;;;8.52;5.07;;;0.10;99.90;;;;;;5062025;28;20210;-82
2022/02/12 03:32:53;;;;;;;7.03;5.07;;;0.30;99.90;;;;;;5063976;28;20249;-83
2022/02/12 03:35:22;;;;;;;7.97;5.60;;;0.20;99.90;;;;;;5067979;28;20211;-83
2022/02/12 03:37:50;;;;;;;10.13;6.15;;;0.50;99.90;;;;;;5069171;28;20249;-83
2022/02/12 03:40:19;;;;;;;7.43;5.07;;;0.30;99.90;;;;;;5069310;28;20207;-83
2022/02/12 03:42:45;;;;;;;10.75;4.85;;;0.20;99.90;;;;;;5065735;28;20218;-83
2022/02/12 03:45:14;;;;;;;9.85;4.93;;;0.20;99.90;;;;;;5064240;28;20222;-82
2022/02/12 03:47:41;;;;;;;8.10;5.13;;;0.00;99.90;;;;;;5064653;28;20217;-82
2022/02/12 03:50:07;;;;;;;7.20;5.10;;;0.00;99.90;;;;;;5063622;28;20210;-82
2022/02/12 03:52:34;;;;;;;6.72;4.68;;;0.00;99.90;;;;;;5062789;28;20199;-82
2022/02/12 03:55:01;;;;;;;13.15;5.13;;;-0.10;99.90;;;;;;5067607;28;20440;-83
2022/02/12 03:57:27;;;;;;;12.93;5.55;;;-0.10;99.90;;;;;;5071678;28;20206;-83
2022/02/12 03:59:54;;;;;;;5.70;4.07;;;-0.10;99.90;;;;;;5072863;28;20229;-83
2022/02/12 04:02:22;;;;;;;6.32;4.78;;;-0.30;99.90;;;;;;5073150;28;20252;-83
2022/02/12 04:04:49;;;;;;;9.02;5.40;;;-0.20;99.90;;;;;;5076787;28;20253;-82
2022/02/12 04:07:16;;;;;;;8.77;5.30;;;-0.10;99.90;;;;;;5078560;28;20198;-82
2022/02/12 04:09:42;;;;;;;8.27;4.60;;;-0.10;99.90;;;;;;5078966;28;20201;-82
2022/02/12 04:12:09;;;;;;;11.57;4.90;;;0.20;99.90;;;;;;5078379;28;20218;-82
2022/02/12 04:14:36;;;;;;;7.60;5.22;;;0.00;99.90;;;;;;5078168;28;20227;-81
2022/02/12 04:17:04;;;;;;;5.40;4.82;;;0.00;99.90;;;;;;5077866;28;20222;-82
2022/02/12 04:19:32;;;;;;;5.80;4.70;;;-0.10;99.90;;;;;;5066766;28;20234;-82
2022/02/12 04:21:59;;;;;;;12.77;4.90;;;-0.10;99.90;;;;;;5065984;28;20206;-83
2022/02/12 04:24:25;;;;;;;8.60;4.72;;;-0.10;99.90;;;;;;5065091;28;20227;-83
2022/02/12 04:26:52;;;;;;;9.48;5.32;;;-0.10;99.90;;;;;;5064863;28;20207;-83
2022/02/12 04:29:20;;;;;;;9.70;5.63;;;-0.10;99.90;;;;;;5064933;28;20198;-82
2022/02/12 04:31:47;;;;;;;13.35;5.18;;;-0.10;99.90;;;;;;5062975;28;20493;-82
2022/02/12 04:34:13;;;;;;;16.98;5.25;;;-0.10;99.90;;;;;;5068705;28;20239;-83
2022/02/12 04:36:41;;;;;;;5.07;4.60;;;-0.20;99.90;;;;;;5065945;28;20203;-82
2022/02/12 04:39:08;;;;;;;9.63;4.72;;;-0.20;99.90;;;;;;5063899;28;20618;-82
2022/02/12 04:41:35;;;;;;;9.52;5.82;;;-0.20;99.90;;;;;;5063148;28;20210;-82
2022/02/12 04:44:01;;;;;;;7.85;4.70;;;0.10;99.90;;;;;;5063853;28;20223;-83
2022/02/12 04:46:28;;;;;;;8.00;5.32;;;-0.30;99.90;;;;;;5064418;28;20199;-82
2022/02/12 04:48:54;;;;;;;7.85;5.03;;;-0.20;99.90;;;;;;5059110;28;20214;-83
2022/02/12 04:51:22;;;;;;;11.63;5.57;;;-0.10;99.90;;;;;;5073809;28;20194;-82
2022/02/12 04:53:51;;;;;;;8.13;4.70;;;0.00;99.90;;;;;;5073170;28;20237;-83
2022/02/12 04:56:17;;;;;;;16.85;5.20;;;-0.20;99.90;;;;;;5070373;28;20209;-83
2022/02/12 04:58:44;;;;;;;8.43;5.45;;;-0.10;99.90;;;;;;5072297;28;20203;-82
2022/02/12 05:01:20;;;;;;;10.30;5.25;;;-0.20;99.90;;;;;;5070517;28;20229;-82
2022/02/12 05:03:48;;;;;;;8.95;4.70;;;-0.20;99.90;;;;;;5064096;28;20213;-83
2022/02/12 05:06:15;;;;;;;8.20;7.10;;;-0.30;99.90;;;;;;5064117;28;20294;-83
2022/02/12 05:08:41;;;;;;;6.78;4.68;;;-0.30;99.90;;;;;;5074201;28;20207;-82
2022/02/12 05:11:09;;;;;;;7.18;4.70;;;-0.70;99.90;;;;;;5077435;28;20331;-83
2022/02/12 05:13:36;;;;;;;10.52;5.30;;;-0.50;99.90;;;;;;5077574;28;20191;-83
2022/02/12 05:16:03;;;;;;;10.27;5.65;;;-0.50;99.90;;;;;;5089820;22;20231;-79
2022/02/12 05:18:30;;;;;;;12.63;5.65;;;-0.50;99.90;;;;;;5057850;28;20207;-80
2022/02/12 05:20:57;;;;;;;11.32;5.00;;;-0.40;99.90;;;;;;5057213;28;20233;-80
2022/02/12 05:23:24;;;;;;;9.38;5.88;;;-0.40;99.90;;;;;;5056451;28;20313;-80
2022/02/12 05:25:50;;;;;;;10.35;5.20;;;-0.30;99.90;;;;;;5057418;28;20250;-80
2022/02/12 05:28:18;;;;;;;12.02;5.68;;;-0.40;99.90;;;;;;5057653;28;20203;-79
2022/02/12 05:30:45;;;;;;;12.15;5.35;;;-0.30;99.90;;;;;;5059891;28;20243;-82
2022/02/12 05:33:11;;;;;;;8.75;5.88;;;-0.40;99.90;;;;;;5061140;28;20233;-79
2022/02/12 05:35:38;;;;;;;10.60;6.30;;;-0.40;99.90;;;;;;5060755;28;20246;-81
2022/02/12 05:38:04;;;;;;;6.20;4.95;;;-0.40;99.90;;;;;;5061357;28;20213;-81
2022/02/12 05:40:31;;;;;;;8.88;5.38;;;-0.60;99.90;;;;;;5061085;28;20199;-81
2022/02/12 05:42:59;;;;;;;13.25;4.95;;;-0.50;99.90;;;;;;5061343;28;20241;-81
2022/02/12 05:45:27;;;;;;;6.93;4.60;;;-0.60;99.90;;;;;;5060693;28;20246;-81
2022/02/12 05:47:54;;;;;;;6.20;4.70;;;-0.60;99.90;;;;;;5061356;28;20218;-80
2022/02/12 05:50:23;;;;;;;8.77;5.50;;;-0.60;99.90;;;;;;5061588;28;20677;-79
2022/02/12 05:52:49;;;;;;;9.02;4.63;;;-0.70;99.90;;;;;;5064796;28;20211;-80
2022/02/12 05:55:16;;;;;;;15.50;5.22;;;-0.70;99.90;;;;;;5060739;28;20238;-80
2022/02/12 05:57:42;;;;;;;10.60;4.88;;;-0.70;99.90;;;;;;5060858;28;20257;-80
2022/02/12 06:00:10;;;;;;;14.95;4.88;;;-0.60;99.90;;;;;;5060986;28;20215;-80
2022/02/12 06:02:38;;;;;;;13.23;5.20;;;-0.70;99.90;;;;;;5059619;28;20207;-80
2022/02/12 06:05:05;;;;;;;8.50;5.90;;;-0.50;99.90;;;;;;5059422;28;20269;-79
2022/02/12 06:07:32;;;;;;;12.30;5.47;;;-0.50;99.90;;;;;;5061081;28;20214;-81
2022/02/12 06:09:58;;;;;;;12.07;5.88;;;-0.70;99.90;;;;;;5060321;28;20222;-81
2022/02/12 06:12:25;;;;;;;11.38;4.82;;;-0.80;99.90;;;;;;5058355;28;20280;-78
2022/02/12 06:14:51;;;;;;;10.43;5.50;;;-0.80;99.90;;;;;;5059594;28;20281;-79
2022/02/12 06:17:18;;;;;;;10.80;5.78;;;-0.80;99.90;;;;;;5061364;28;20211;-79
2022/02/12 06:19:46;;;;;;;10.20;4.95;;;-0.70;99.90;;;;;;5060145;28;20207;-79
2022/02/12 06:22:12;;;;;;;11.75;6.50;;;-0.90;99.90;;;;;;5059408;28;20210;-80
2022/02/12 06:24:39;;;;;;;17.42;5.90;;;-0.70;99.90;;;;;;5057755;28;20277;-81
2022/02/12 06:27:06;;;;;;;12.23;6.40;;;-0.70;99.90;;;;;;5057949;28;20239;-79
2022/02/12 06:29:32;;;;;;;10.32;6.28;;;-0.70;99.90;;;;;;5057646;28;20203;-78
2022/02/12 06:31:59;;;;;;;6.63;5.43;;;-0.70;99.90;;;;;;5067851;28;20206;-78
2022/02/12 06:34:26;;;;;;;15.45;6.18;;;-0.70;99.90;;;;;;5067919;28;20237;-78
2022/02/12 06:36:54;;;;;;;11.00;6.28;;;-0.70;99.90;;;;;;5065247;28;20199;-81
2022/02/12 06:39:21;;;;;;;9.73;6.00;;;-0.70;99.90;;;;;;5058503;28;20207;-79
2022/02/12 06:41:47;;;;;;;16.65;6.10;;;-0.70;99.90;;;;;;5059267;28;20203;-79
2022/02/12 06:44:14;;;;;;;12.05;7.13;;;-0.90;99.90;;;;;;5058743;28;20226;-79
2022/02/12 06:46:40;;;;;;;10.73;6.07;;;-1.00;99.90;;;;;;5057213;28;20226;-79
2022/02/12 06:49:07;;;;;;;9.93;5.75;;;-0.80;99.90;;;;;;5057894;28;20627;-79
2022/02/12 06:51:34;;;;;;;11.23;6.38;;;-0.80;99.90;;;;;;5057182;28;20243;-80
2022/02/12 06:54:01;;;;;;;10.07;6.43;;;-0.80;99.90;;;;;;5059456;28;20199;-80
2022/02/12 06:56:28;;;;;;;8.38;5.47;;;-0.80;99.90;;;;;;5057607;28;20203;-80
2022/02/12 06:58:55;;;;;;;9.60;5.05;;;-0.80;99.90;;;;;;5057311;28;20238;-80
2022/02/12 07:01:23;;;;;;;11.05;6.13;;;-0.80;99.90;;;;;;5057390;28;20207;-80
2022/02/12 07:03:49;;;;;;;12.50;5.75;;;-0.70;99.90;;;;;;5057544;28;20226;-80
2022/02/12 07:06:16;;;;;;;12.13;5.28;;;-0.80;99.90;;;;;;5058407;28;20273;-80
2022/02/12 07:08:42;;;;;;;8.27;5.45;;;-0.80;99.90;;;;;;5058454;28;20234;-80
2022/02/12 07:11:11;;;;;;;12.27;6.38;;;-0.80;99.90;;;;;;5057225;28;20230;-80
2022/02/12 07:13:37;;;;;;;13.60;6.88;;;-0.70;99.90;;;;;;5058051;28;20226;-79
2022/02/12 07:16:04;;;;;;;14.55;6.53;;;-0.90;99.90;;;;;;5057627;28;20650;-79
2022/02/12 07:18:31;;;;;;;17.70;7.45;;;-0.80;99.90;;;;;;5060358;28;20203;-79
2022/02/12 07:20:58;;;;;;;14.90;6.47;;;-0.80;99.90;;;;;;5059205;28;20213;-80
2022/02/12 07:23:25;;;;;;;9.10;6.93;;;-0.80;99.90;;;;;;5057621;28;20207;-80
2022/02/12 07:25:51;;;;;;;15.98;7.63;;;-0.80;99.90;;;;;;5058377;28;20223;-80
2022/02/12 07:28:19;;;;;;;18.38;6.22;;;-0.70;99.90;;;;;;5059149;28;20238;-79
2022/02/12 07:30:46;;;;;;;17.83;8.35;;;-0.70;99.90;;;;;;5058447;28;20294;-79
2022/02/12 07:33:12;;;;;;;15.00;8.05;;;-0.70;99.90;;;;;;5059671;28;20223;-80
2022/02/12 07:35:39;;;;;;;13.35;7.07;;;-0.70;99.90;;;;;;5062068;28;20223;-81
2022/02/12 07:38:08;;;;;;;6.47;5.38;;;-0.60;99.90;;;;;;5068641;28;20253;-79
2022/02/12 07:40:35;;;;;;;10.65;6.50;;;-0.60;99.90;;;;;;5067533;28;20211;-79
2022/02/12 07:43:01;;;;;;;12.70;6.75;;;-0.50;99.90;;;;;;5066831;28;20199;-79
2022/02/12 07:45:29;;;;;;;11.60;7.40;;;-0.50;99.90;;;;;;5068315;28;20701;-79
2022/02/12 07:47:56;;;;;;;9.80;5.85;;;-0.50;99.90;;;;;;5061544;28;20199;-79
2022/02/12 07:50:23;;;;;;;13.35;6.60;;;-0.50;99.90;;;;;;5060548;28;20578;-81
2022/02/12 07:52:51;;;;;;;9.13;5.53;;;-0.50;99.90;;;;;;5058007;28;20570;-80
2022/02/12 07:55:19;;;;;;;9.23;6.32;;;-0.40;99.90;;;;;;5057649;28;20234;-78
2022/02/12 07:57:46;;;;;;;14.05;6.50;;;-0.20;99.90;;;;;;5057048;28;20203;-81
2022/02/12 08:00:14;;;;;;;12.02;6.68;;;-0.30;99.90;;;;;;5057466;28;20272;-79
2022/02/12 08:02:42;;;;;;;8.80;7.47;;;-0.20;99.90;;;;;;5057861;28;20570;-80
2022/02/12 08:05:10;;;;;;;9.55;5.95;;;-0.20;99.90;;;;;;5057320;28;20227;-82
2022/02/12 08:07:38;;;;;;;13.57;5.80;;;0.00;99.90;;;;;;5057426;28;20207;-80
2022/02/12 08:12:48;;;;;;;11.77;6.28;;;0.00;99.90;;;;;;5057283;28;20649;-81
2022/02/12 08:15:14;;;;;;;16.70;8.02;;;0.10;99.90;;;;;;5063519;28;20223;-80
2022/02/12 08:17:42;;;;;;;8.02;5.22;;;0.20;99.90;;;;;;5068069;28;20199;-78
2022/02/12 08:20:10;;;;;;;9.70;6.65;;;0.20;99.90;;;;;;5066176;28;20202;-78
2022/02/12 08:22:37;;;;;;;13.05;6.70;;;0.30;99.90;;;;;;5065272;28;20207;-79
2022/02/12 08:25:05;;;;;;;9.05;6.20;;;0.30;99.90;;;;;;5063636;28;20227;-78
2022/02/12 08:27:31;;;;;;;9.35;7.03;;;0.40;99.90;;;;;;5060203;28;20237;-79
2022/02/12 08:29:58;;;;;;;18.85;5.90;;;0.60;99.90;;;;;;5058813;28;20249;-79
2022/02/12 08:32:26;;;;;;;10.10;5.78;;;0.70;99.90;;;;;;5056842;28;20215;-79
2022/02/12 08:34:55;;;;;;;13.02;6.28;;;0.80;99.90;;;;;;5062271;28;20629;-79
2022/02/12 08:37:22;;;;;;;9.63;5.32;;;0.70;99.90;;;;;;5066491;28;20203;-79
2022/02/12 08:39:49;;;;;;;16.00;6.35;;;0.70;99.90;;;;;;5068921;28;20230;-79
2022/02/12 08:42:18;;;;;;;9.90;6.50;;;0.80;99.90;;;;;;5067319;28;20213;-79
2022/02/12 08:44:44;;;;;;;7.80;6.40;;;0.90;99.90;;;;;;5067017;28;20227;-79
2022/02/12 08:47:11;;;;;;;10.20;6.30;;;0.90;99.90;;;;;;5067058;28;20207;-80
2022/02/12 08:49:38;;;;;;;10.70;5.95;;;1.10;99.90;;;;;;5068245;28;20699;-79
2022/02/12 08:52:07;;;;;;;9.82;6.03;;;0.90;99.90;;;;;;5067349;28;20207;-80
2022/02/12 08:54:34;;;;;;;17.90;6.68;;;1.00;99.90;;;;;;5070876;28;20226;-79
2022/02/12 08:57:01;;;;;;;9.40;5.95;;;1.00;99.90;;;;;;5068662;28;20266;-79
2022/02/12 08:59:29;;;;;;;6.93;5.55;;;1.10;99.90;;;;;;5065397;28;20207;-81
2022/02/12 09:01:56;;;;;;;9.32;5.30;;;1.30;99.90;;;;;;5066447;28;20205;-79
2022/02/12 09:04:22;;;;;;;13.60;6.80;;;1.30;99.90;;;;;;5063924;28;20273;-81
2022/02/12 09:06:49;;;;;;;7.28;5.53;;;1.50;99.90;;;;;;5061853;28;20202;-80
2022/02/12 09:09:17;;;;;;;9.00;5.30;;;1.40;99.90;;;;;;5061333;28;20666;-80
2022/02/12 09:11:45;;;;;;;14.05;6.13;;;1.50;99.90;;;;;;5061436;28;20237;-79
2022/02/12 09:14:13;;;;;;;8.98;5.05;;;1.70;99.90;;;;;;5060865;28;20218;-79
2022/02/12 09:16:41;;;;;;;10.13;6.65;;;1.60;99.90;;;;;;5060374;28;20275;-80
2022/02/12 09:19:09;;;;;;;16.02;6.25;;;1.70;99.90;;;;;;5060787;28;20280;-79
2022/02/12 09:21:36;;;;;;;11.35;5.05;;;2.00;99.90;;;;;;5069559;28;20222;-80
2022/02/12 09:24:03;;;;;;;9.13;5.38;;;1.80;99.90;;;;;;5077507;28;20293;-80
2022/02/12 09:26:32;;;;;;;12.38;6.10;;;1.90;99.90;;;;;;5073540;28;20213;-80
2022/02/12 09:29:00;;;;;;;11.75;5.90;;;1.80;99.90;;;;;;5072023;28;20210;-79
2022/02/12 09:31:27;;;;;;;10.65;6.47;;;2.10;99.90;;;;;;5075045;28;20199;-80
2022/02/12 09:33:55;;;;;;;9.73;5.75;;;2.00;99.90;;;;;;5074517;28;20203;-79
2022/02/12 09:36:21;;;;;;;5.55;4.65;;;2.10;99.90;;;;;;5075551;28;20215;-79
2022/02/12 09:38:50;;;;;;;8.60;4.40;;;2.30;99.90;;;;;;5076571;28;20207;-79
2022/02/12 09:41:20;;;;;;;8.70;5.32;;;2.40;99.90;;;;;;5071506;28;20229;-81
2022/02/12 09:43:49;;;;;;;9.20;4.78;;;2.50;99.90;;;;;;5069582;28;20207;-81
2022/02/12 09:46:51;;;;;;;8.13;4.70;;;2.60;99.90;;;;;;5061655;28;20223;-81
2022/02/12 09:49:17;;;;;;;7.03;4.20;;;2.70;99.90;;;;;;5044168;28;20210;-80
2022/02/12 09:51:45;;;;;;;11.90;4.35;;;2.80;99.90;;;;;;5060084;28;20210;-80
2022/02/12 09:54:12;;;;;;;9.20;4.55;;;2.70;99.90;;;;;;5060349;28;20252;-80
2022/02/12 09:56:39;;;;;;;10.02;4.10;;;3.00;99.90;;;;;;5060072;28;20576;-79
2022/02/12 09:59:07;;;;;;;13.55;4.93;;;2.60;99.90;;;;;;5062337;28;20262;-80
2022/02/12 10:01:37;;;;;;;8.82;4.78;;;2.80;99.90;;;;;;5063584;28;20210;-79
2022/02/12 10:04:05;;;;;;;13.18;5.25;;;3.00;99.90;;;;;;5063363;28;20199;-79
2022/02/12 10:06:42;;;;;;;8.88;4.32;;;2.90;99.90;;;;;;5060385;28;20268;-80
2022/02/12 10:09:09;;;;;;;5.93;3.85;;;2.90;99.90;;;;;;5059481;28;20202;-78
2022/02/12 10:11:41;;;;;;;11.88;4.53;;;2.90;99.90;;;;;;5058887;28;20569;-80
2022/02/12 10:14:10;;;;;;;7.55;4.22;;;3.10;99.90;;;;;;5058920;28;20268;-79
2022/02/12 10:16:57;;;;;;;8.68;4.50;;;3.00;99.90;;;;;;5058748;28;20215;-79
2022/02/12 10:19:32;;;;;;;9.18;4.82;;;3.20;99.90;;;;;;5059999;28;20183;-80
2022/02/12 10:22:15;;;;;;;14.15;5.38;;;3.20;99.90;;;;;;5060262;28;20232;-80
2022/02/12 10:24:47;;;;;;;8.60;5.30;;;3.30;99.90;;;;;;5059392;28;20233;-79
2022/02/12 10:27:14;;;;;;;11.82;4.13;;;3.30;99.60;;;;;;5064772;28;20203;-81
2022/02/12 10:29:45;;;;;;;11.25;4.35;;;3.30;1.00;;;;;;5060425;28;20654;-80
2022/02/12 10:32:12;;;;;;;9.80;5.43;;;3.20;1.00;;;;;;5059848;28;20188;-80
2022/02/12 10:34:40;;;;;;;8.85;5.30;;;3.30;49.50;;;;;;5060569;28;20251;-80
2022/02/12 10:37:07;;;;;;;9.25;4.60;;;3.30;1.00;;;;;;5059891;28;20673;-79
2022/02/12 10:39:39;;;;;;;14.07;5.03;;;3.50;99.90;;;;;;5060018;28;20202;-80
2022/02/12 10:42:09;;;;;;;9.13;4.60;;;3.50;1.00;;;;;;5059346;28;20188;-80
2022/02/12 10:44:35;;;;;;;7.22;5.22;;;3.50;1.00;;;;;;5059355;28;20685;-80
2022/02/12 10:47:04;;;;;;;7.55;4.55;;;3.60;1.00;;;;;;5058442;28;20225;-80
2022/02/12 10:49:31;;;;;;;8.70;5.20;;;3.70;1.00;;;;;;5058409;28;20199;-80
2022/02/12 10:51:57;;;;;;;9.95;4.00;;;3.70;99.90;;;;;;5058415;28;20230;-79
2022/02/12 10:54:24;;;;;;;7.70;3.97;;;3.80;1.00;;;;;;5059613;28;20219;-77
2022/02/12 10:56:52;;;;;;;12.13;5.43;;;3.90;1.00;;;;;;5060872;28;20257;-77
2022/02/12 10:59:20;;;;;;;8.30;4.20;;;3.90;1.00;;;;;;5059979;28;20207;-78
2022/02/12 11:01:48;;;;;;;8.55;4.57;;;3.90;1.00;;;;;;5060903;28;20187;-78
2022/02/12 11:04:17;;;;;;;5.70;3.92;;;3.50;1.00;;;;;;5059828;28;20214;-78
2022/02/12 11:06:46;;;;;;;6.15;4.18;;;4.00;99.90;;;;;;5059356;28;20211;-79
2022/02/12 11:09:13;;;;;;;8.50;4.13;;;4.00;99.90;;;;;;5059329;28;20302;-80
2022/02/12 11:11:39;;;;;;;7.40;3.60;;;4.20;99.90;;;;;;5060628;28;20262;-79
2022/02/12 11:14:07;;;;;;;10.50;4.68;;;4.20;77.30;;;;;;5057207;28;20199;-80
2022/02/12 11:41:08;;;;;;;;;;;;;;;;;;;;;
2022/02/12 13:10:44;;;;;;;4.07;2.13;;;5.20;26.50;;;;;;4921229;22;20314;-79
2022/02/12 13:13:12;;;;;;;4.40;2.30;;;4.90;9.00;;;;;;5001623;28;20569;-79
2022/02/12 13:15:40;;;;;;;3.85;2.25;;;4.70;3.30;;;;;;5007961;28;20758;-79
2022/02/12 13:18:07;;;;;;;7.63;2.00;;;5.00;1.00;;;;;;5007899;28;20204;-78
2022/02/12 13:20:35;;;;;;;6.30;2.20;;;5.10;1.00;;;;;;5005006;28;20234;-80
2022/02/12 13:23:04;;;;;;;2.75;2.13;;;5.00;1.00;;;;;;5004802;28;20201;-79
2022/02/12 13:25:32;;;;;;;2.45;1.50;;;5.10;1.00;;;;;;5003440;28;20267;-79
2022/02/12 13:28:00;;;;;;;2.25;2.00;;;5.10;1.00;;;;;;5003563;28;20205;-78
2022/02/12 13:30:31;;;;;;;3.65;2.30;;;4.80;1.00;;;;;;5002998;28;20209;-79
2022/02/12 13:32:59;;;;;;;21.00;2.15;;;5.10;4.90;;;;;;4999223;28;20240;-78
2022/02/12 13:35:27;;;;;;;4.63;2.58;;;5.00;1.00;;;;;;4997368;28;20249;-80
2022/02/12 13:37:55;;;;;;;3.05;1.70;;;5.10;1.00;;;;;;4998677;28;20702;-79
2022/02/12 13:40:25;;;;;;;2.65;1.45;;;5.00;1.00;;;;;;5001396;28;20208;-81
2022/02/12 13:42:54;;;;;;;3.50;2.10;;;5.00;13.30;;;;;;5001831;28;20205;-80
2022/02/12 13:45:24;;;;;;;7.28;2.58;;;4.80;1.00;;;;;;5003897;28;20238;-79
2022/02/12 13:47:57;;;;;;;10.50;2.90;;;4.90;1.00;;;;;;4999948;28;20216;-80
2022/02/12 13:50:24;;;;;;;7.75;2.70;;;5.10;28.70;;;;;;5005842;28;20194;-80
2022/02/12 13:52:59;;;;;;;6.75;2.40;;;5.00;1.00;;;;;;5007867;28;20220;-78
2022/02/12 13:55:27;;;;;;;5.47;3.50;;;4.80;1.00;;;;;;5008662;28;20208;-78
2022/02/12 13:57:54;;;;;;;3.58;2.45;;;5.10;1.00;;;;;;5007720;28;20212;-80
2022/02/12 14:00:22;;;;;;;10.13;3.85;;;4.90;13.10;;;;;;5003370;28;20214;-79
2022/02/12 14:02:53;;;;;;;9.85;2.97;;;5.10;1.00;;;;;;5002827;28;20616;-79
2022/02/12 14:05:21;;;;;;;6.93;3.08;;;5.00;1.00;;;;;;5004043;28;20544;-79
2022/02/12 14:07:47;;;;;;;4.70;3.00;;;5.00;1.00;;;;;;5004439;28;20232;-78
2022/02/12 14:10:15;;;;;;;5.10;2.88;;;5.00;1.00;;;;;;5007347;28;20205;-79
2022/02/12 14:12:42;;;;;;;6.57;2.90;;;4.90;22.90;;;;;;5012585;28;20224;-81
2022/02/12 14:15:09;;;;;;;5.65;2.50;;;4.90;34.40;;;;;;5011573;28;20236;-80
2022/02/12 14:17:37;;;;;;;6.68;3.50;;;5.00;1.00;;;;;;5007772;28;20270;-79
2022/02/12 14:20:05;;;;;;;5.60;2.80;;;4.70;1.00;;;;;;5002971;28;20212;-79
2022/02/12 14:22:32;;;;;;;5.40;2.20;;;5.10;1.00;;;;;;4999840;28;20225;-79
2022/02/12 14:24:58;;;;;;;4.57;2.50;;;5.10;1.00;;;;;;5000383;28;20205;-80
2022/02/12 14:27:25;;;;;;;7.70;2.35;;;5.00;1.00;;;;;;4999268;28;20201;-80
2022/02/12 14:29:52;;;;;;;3.80;2.10;;;5.00;1.00;;;;;;4999622;28;20296;-79
2022/02/12 14:32:21;;;;;;;6.57;2.35;;;4.90;1.00;;;;;;4999565;28;20225;-79
2022/02/12 14:34:48;;;;;;;6.93;2.42;;;4.90;1.00;;;;;;5004679;28;20216;-79
2022/02/12 14:37:15;;;;;;;4.10;2.30;;;4.90;1.00;;;;;;4999534;28;20288;-79
2022/02/12 14:39:41;;;;;;;13.18;2.85;;;4.80;1.00;;;;;;5000115;28;20233;-79
2022/02/12 14:42:08;;;;;;;3.92;2.40;;;4.80;1.00;;;;;;4999216;28;20257;-80
2022/02/12 14:44:35;;;;;;;3.95;3.35;;;4.80;1.00;;;;;;4998968;28;20279;-80
2022/02/12 14:47:01;;;;;;;4.45;2.40;;;4.80;1.00;;;;;;4999222;28;20236;-79
2022/02/12 14:49:28;;;;;;;9.77;2.30;;;4.70;1.00;;;;;;4999295;28;20209;-80
2022/02/12 14:51:56;;;;;;;3.03;2.65;;;4.70;1.00;;;;;;4999094;28;20651;-79
2022/02/12 14:54:24;;;;;;;4.40;2.22;;;4.60;1.00;;;;;;4999550;28;20205;-80